Terminal Aerodrome Forecast
Issued by NWS Wilmington, OH

Current Version | Previous Version | Graphics & Text | Print | Product List | Glossary On
Versions: 1 2 3 4 5 6 7 8 9 10 11 12 13 14 15 16 17 18 19 20 21 22 23 24 25
000
FTUS41 KILN 192300
TAFDAY
TAF
KDAY 192328Z 2000/2024 22004KT P6SM SCT200
     FM200900 20008KT P6SM VCSH BKN090
     FM201400 22014G22KT P6SM SCT040 BKN080
     FM201700 23014G22KT P6SM VCSH BKN035=

USA.gov is the U.S. government's official web portal to all federal, state and local government web resources and services.